Time;durP1;ratioP1;P1;durP2;ratioP2;P2;SDS_P1;SDS_P2;PMS_P1;PMS_P2;Temp;Humidity;BMP_temperature;BMP_pressure;BME280_temperature;BME280_humidity;BME280_pressure;Samples;Min_cycle;Max_cycle;Signal;HPM_P1;HPM_P2
2022/11/16 00:01:10;;;;;;;21.15;12.80;;;;;;;-0.52;65.21;99548.94;5034812;28;20036;-49
2022/11/16 00:03:36;;;;;;;23.67;13.45;;;;;;;-0.69;65.92;99539.06;5034769;28;20026;-52
2022/11/16 00:06:03;;;;;;;21.17;11.27;;;;;;;-0.66;66.00;99546.00;5034449;28;20040;-50
2022/11/16 00:08:30;;;;;;;22.25;12.02;;;;;;;-0.52;65.20;99548.09;5040931;28;20032;-52
2022/11/16 00:11:06;;;;;;;21.55;11.88;;;;;;;-0.60;65.84;99545.75;5048995;28;20102;-50
2022/11/16 00:13:33;;;;;;;21.00;13.10;;;;;;;-0.47;64.83;99544.38;5034332;28;20111;-51
2022/11/16 00:15:59;;;;;;;25.33;13.75;;;;;;;-0.61;65.29;99541.41;5034328;28;20040;-51
2022/11/16 00:18:24;;;;;;;24.25;12.88;;;;;;;-0.77;66.02;99535.91;5040095;28;20154;-51
2022/11/16 00:20:50;;;;;;;24.80;13.05;;;;;;;-0.77;66.55;99543.78;5051739;28;20029;-50
2022/11/16 00:23:16;;;;;;;20.45;10.88;;;;;;;-0.44;64.72;99541.59;5034458;28;20052;-59
2022/11/16 00:25:42;;;;;;;22.23;12.07;;;;;;;-0.50;64.48;99526.06;5034196;28;20060;-51
2022/11/16 00:28:08;;;;;;;24.77;13.07;;;;;;;-0.66;64.71;99536.31;5037069;28;20056;-52
2022/11/16 00:30:34;;;;;;;22.30;13.18;;;;;;;-0.72;65.04;99544.47;5053898;28;20418;-51
2022/11/16 00:33:00;;;;;;;17.65;9.20;;;;;;;-0.60;65.07;99543.13;5053592;28;20507;-53
2022/11/16 00:35:25;;;;;;;19.17;10.57;;;;;;;-0.69;65.10;99541.69;5053351;28;20104;-49
2022/11/16 00:37:51;;;;;;;20.48;12.02;;;;;;;-0.75;65.22;99534.91;5052409;28;20108;-50
2022/11/16 00:40:17;;;;;;;17.67;11.38;;;;;;;-0.78;65.73;99557.84;5033010;28;20030;-62
2022/11/16 00:42:42;;;;;;;18.05;11.05;;;;;;;-0.64;64.79;99546.78;5034899;28;20144;-53
2022/11/16 00:45:08;;;;;;;20.55;10.13;;;;;;;-0.77;65.25;99549.03;5042327;28;20116;-54
2022/11/16 00:47:34;;;;;;;19.13;10.82;;;;;;;-0.64;65.08;99546.78;5053616;28;20075;-54
2022/11/16 00:49:59;;;;;;;15.23;9.55;;;;;;;-0.79;65.45;99556.13;5034600;28;20472;-49
2022/11/16 00:52:25;;;;;;;17.83;10.07;;;;;;;-1.01;65.54;99520.97;5033659;28;20352;-53
2022/11/16 00:54:50;;;;;;;19.80;9.15;;;;;;;-0.57;64.44;99561.41;5033660;28;20029;-54
2022/11/16 00:57:16;;;;;;;16.38;9.52;;;;;;;-0.97;64.58;99510.34;5033480;28;20457;-53
2022/11/16 00:59:41;;;;;;;15.18;9.52;;;;;;;-0.79;65.01;99545.63;5046749;28;20052;-49
2022/11/16 01:02:07;;;;;;;17.40;9.32;;;;;;;-0.63;64.42;99546.72;5032839;28;20025;-52
2022/11/16 01:04:32;;;;;;;16.38;9.43;;;;;;;-0.78;64.72;99553.44;5047147;28;20593;-51
2022/11/16 01:06:57;;;;;;;15.13;9.05;;;;;;;-0.71;63.81;99517.25;5053214;28;20427;-51
2022/11/16 01:09:23;;;;;;;15.23;6.53;;;;;;;-0.56;63.75;99543.88;5036513;28;20041;-48
2022/11/16 01:14:33;;;;;;;17.20;8.68;;;;;;;-0.67;64.06;99533.78;5033292;28;20120;-52
2022/11/16 01:16:58;;;;;;;16.90;9.25;;;;;;;-0.77;64.31;99542.00;5032926;28;20171;-51
2022/11/16 01:19:24;;;;;;;16.23;9.52;;;;;;;-0.94;64.80;99531.28;5048492;28;20036;-54
2022/11/16 01:21:49;;;;;;;21.95;10.95;;;;;;;-0.77;64.41;99539.38;5052144;28;20029;-63
2022/11/16 01:24:15;;;;;;;15.43;8.88;;;;;;;-0.80;64.34;99544.75;5053010;28;20055;-56
2022/11/16 01:26:40;;;;;;;19.00;10.18;;;;;;;-1.05;65.42;99545.66;5052658;28;20033;-52
2022/11/16 01:29:06;;;;;;;21.58;8.57;;;;;;;-0.92;64.88;99522.41;5038323;28;20372;-53
2022/11/16 01:31:31;;;;;;;13.52;8.57;;;;;;;-0.92;65.42;99543.44;5033037;28;20030;-49
2022/11/16 01:33:57;;;;;;;15.65;8.32;;;;;;;-0.85;64.68;99535.31;5032671;28;20021;-48
2022/11/16 01:36:22;;;;;;;14.93;8.15;;;;;;;-0.73;64.48;99535.69;5031672;28;20098;-53
2022/11/16 01:38:49;;;;;;;17.35;8.73;;;;;;;-0.99;65.47;99538.47;5043388;28;20120;-51
2022/11/16 01:41:18;;;;;;;15.43;8.55;;;;;;;-0.98;65.77;99540.19;5040916;28;20037;-49
2022/11/16 01:43:55;;;;;;;12.75;6.30;;;;;;;-0.49;63.59;99546.16;5048284;28;20060;-51
2022/11/16 01:46:21;;;;;;;13.52;6.15;;;;;;;-0.51;62.75;99548.00;5052557;28;20037;-63
2022/11/16 01:48:49;;;;;;;18.40;9.35;;;;;;;-1.15;64.61;99520.66;5041823;28;20032;-53
2022/11/16 01:51:15;;;;;;;20.55;8.60;;;;;;;-1.07;64.43;99554.53;5036082;28;20036;-51
2022/11/16 01:53:41;;;;;;;18.45;8.32;;;;;;;-1.13;64.66;99552.13;5037372;28;20029;-48
2022/11/16 01:56:07;;;;;;;15.73;7.82;;;;;;;-1.09;64.91;99549.34;5032405;28;20037;-48
2022/11/16 01:58:33;;;;;;;19.13;8.75;;;;;;;-1.02;65.18;99549.97;5035107;28;20121;-49
2022/11/16 02:00:59;;;;;;;19.88;8.68;;;;;;;-1.12;65.65;99553.84;5032454;28;20033;-50
2022/11/16 02:03:24;;;;;;;17.27;8.50;;;;;;;-1.03;65.28;99540.38;5032283;28;20036;-53
2022/11/16 02:06:18;;;;;;;16.83;8.40;;;;;;;-1.09;65.32;99522.19;5032625;28;20026;-52
2022/11/16 02:12:31;;;;;;;16.08;8.27;;;;;;;-0.82;65.05;99561.50;5031934;28;20456;-52
2022/11/16 02:15:08;;;;;;;17.15;7.90;;;;;;;-0.90;65.64;99561.78;5035009;28;20056;-55
2022/11/16 02:17:43;;;;;;;15.70;7.72;;;;;;;-0.69;64.25;99564.53;5042145;28;20035;-53
2022/11/16 02:20:17;;;;;;;13.90;7.95;;;;;;;-0.77;64.25;99565.66;5035185;28;20034;-48
2022/11/16 02:23:24;;;;;;;13.63;5.80;;;;;;;-0.85;64.87;99561.59;5032218;28;20095;-48
2022/11/16 02:25:59;;;;;;;13.48;7.93;;;;;;;-0.94;64.87;99574.19;5031761;28;20409;-52
2022/11/16 02:28:35;;;;;;;14.82;7.10;;;;;;;-0.63;63.53;99567.75;5034455;28;20097;-49
2022/11/16 02:31:05;;;;;;;16.23;7.43;;;;;;;-0.91;64.27;99574.06;5052146;28;20050;-53
2022/11/16 02:33:35;;;;;;;15.23;6.65;;;;;;;-0.95;64.21;99569.00;5051925;28;20029;-49
2022/11/16 02:36:04;;;;;;;17.73;6.70;;;;;;;-0.81;63.60;99579.00;5052135;28;20044;-50
2022/11/16 02:38:36;;;;;;;15.38;7.30;;;;;;;-0.99;64.10;99581.38;5050083;28;20094;-49
2022/11/16 02:41:07;;;;;;;13.82;6.60;;;;;;;-1.28;64.61;99569.31;5045379;28;20033;-51
2022/11/16 02:43:39;;;;;;;6.07;3.78;;;;;;;-0.83;63.41;99580.81;5031952;28;20045;-54
2022/11/16 02:46:11;;;;;;;15.20;6.18;;;;;;;-0.94;62.61;99583.84;5032277;28;20464;-50
2022/11/16 02:48:42;;;;;;;13.07;6.65;;;;;;;-1.27;64.35;99586.78;5031637;28;20033;-52
2022/11/16 02:51:10;;;;;;;11.40;6.63;;;;;;;-1.31;64.03;99586.03;5035673;28;20091;-50
2022/11/16 02:53:51;;;;;;;13.73;6.63;;;;;;;-1.49;64.02;99567.41;5049840;28;20032;-48
2022/11/16 02:56:17;;;;;;;14.38;6.28;;;;;;;-1.32;63.96;99590.44;5055555;28;20029;-51
2022/11/16 02:58:42;;;;;;;11.75;6.13;;;;;;;-1.32;63.56;99585.16;5037470;28;20025;-52
2022/11/16 03:01:13;;;;;;;13.32;7.78;;;;;;;-1.49;64.23;99582.28;5037481;28;20048;-51
2022/11/16 03:03:38;;;;;;;14.45;6.60;;;;;;;-1.51;64.50;99590.22;5041107;28;20028;-51
2022/11/16 03:06:11;;;;;;;15.27;5.90;;;;;;;-1.19;63.27;99596.09;5034620;28;20041;-49
2022/11/16 03:08:56;;;;;;;14.65;6.22;;;;;;;-1.38;63.84;99614.28;5035418;28;20236;-52
2022/11/16 03:14:10;;;;;;;14.50;6.20;;;;;;;-1.66;64.44;99609.13;5052415;28;20036;-48
2022/11/16 03:16:47;;;;;;;15.38;6.80;;;;;;;-1.59;63.56;99613.22;5048296;28;20061;-49
2022/11/16 03:19:17;;;;;;;18.42;8.18;;;;;;;-1.71;64.36;99618.91;5035381;28;20116;-59
2022/11/16 03:21:53;;;;;;;15.68;7.82;;;;;;;-1.73;64.64;99617.19;5035159;28;20341;-51
2022/11/16 03:24:19;;;;;;;12.65;6.47;;;;;;;-1.75;64.39;99607.66;5050083;28;20408;-51
2022/11/16 03:27:23;;;;;;;15.48;7.28;;;;;;;-1.73;64.87;99613.69;5037263;28;20128;-54
2022/11/16 03:30:15;;;;;;;12.90;7.15;;;;;;;-1.76;64.94;99612.06;5054473;28;20049;-56
2022/11/16 03:33:09;;;;;;;16.60;8.35;;;;;;;-1.79;64.82;99614.78;5049538;28;20095;-54
2022/11/16 03:35:42;;;;;;;15.63;7.88;;;;;;;-1.82;65.09;99625.34;5035383;28;20444;-52
2022/11/16 03:38:10;;;;;;;13.93;7.60;;;;;;;-1.79;64.70;99632.28;5034839;28;20124;-50
2022/11/16 03:40:37;;;;;;;15.45;7.43;;;;;;;-1.89;64.39;99601.09;5034070;28;20127;-51
2022/11/16 03:43:05;;;;;;;14.00;6.68;;;;;;;-1.75;63.79;99615.53;5045969;28;20099;-50
2022/11/16 03:45:31;;;;;;;14.50;7.72;;;;;;;-1.78;64.71;99628.75;5054879;28;20033;-54
2022/11/16 03:47:57;;;;;;;19.02;7.95;;;;;;;-1.80;64.95;99620.94;5035595;28;20033;-55
2022/11/16 03:50:22;;;;;;;11.35;6.07;;;;;;;-1.75;64.34;99633.91;5034790;28;20040;-52
2022/11/16 03:52:48;;;;;;;13.52;7.15;;;;;;;-1.83;64.31;99626.28;5043872;28;20360;-53
2022/11/16 03:55:14;;;;;;;14.27;7.22;;;;;;;-1.74;63.75;99639.09;5053897;28;20032;-52
2022/11/16 03:57:39;;;;;;;10.40;6.70;;;;;;;-1.78;64.35;99631.38;5050160;28;20522;-50
2022/11/16 04:00:06;;;;;;;15.45;6.45;;;;;;;-1.62;63.59;99639.59;5034188;28;20025;-55
2022/11/16 04:02:32;;;;;;;11.20;5.65;;;;;;;-1.60;63.38;99630.78;5040824;28;20033;-51
2022/11/16 04:24:22;;;;;;;12.98;6.97;;;;;;;-2.08;63.74;99616.56;5034309;28;20045;-61
2022/11/16 04:29:37;;;;;;;13.52;6.80;;;;;;;-2.08;63.63;99660.31;5033987;28;20042;-50
2022/11/16 04:40:16;;;;;;;15.65;8.07;;;;;;;-2.18;64.62;99657.97;5047807;28;20029;-53
2022/11/16 04:42:42;;;;;;;18.30;8.88;;;;;;;-2.24;64.30;99647.66;5040743;28;20037;-50
2022/11/16 04:47:52;;;;;;;17.23;7.55;;;;;;;-2.06;63.36;99674.25;5053490;28;20083;-51
2022/11/16 04:50:18;;;;;;;14.68;7.50;;;;;;;-2.23;63.51;99673.00;5053510;28;20041;-50
2022/11/16 04:52:44;;;;;;;19.80;8.50;;;;;;;-2.45;64.29;99665.75;5045752;28;20048;-55
2022/11/16 04:55:10;;;;;;;19.40;8.27;;;;;;;-2.44;65.13;99666.63;5035752;28;20029;-55
2022/11/16 04:57:35;;;;;;;16.20;8.00;;;;;;;-2.42;64.81;99666.56;5051404;28;20375;-51
2022/11/16 05:00:02;;;;;;;15.93;8.40;;;;;;;-2.50;65.25;99661.59;5043431;28;20025;-54
2022/11/16 05:02:29;;;;;;;16.00;9.90;;;;;;;-2.60;66.02;99663.63;5038734;28;20025;-55
2022/11/16 05:04:55;;;;;;;15.35;6.95;;;;;;;-2.27;64.26;99668.75;5053575;28;20474;-52
2022/11/16 05:07:21;;;;;;;17.15;9.32;;;;;;;-2.33;64.53;99658.44;5052079;28;20091;-54
2022/11/16 05:09:47;;;;;;;14.70;9.05;;;;;;;-2.54;63.96;99634.59;5045292;28;20371;-53
2022/11/16 05:12:14;;;;;;;18.02;8.18;;;;;;;-2.37;64.64;99670.78;5034744;28;20045;-52
2022/11/16 05:14:43;;;;;;;19.52;8.60;;;;;;;-2.26;64.25;99670.47;5051683;28;20041;-52
2022/11/16 05:17:08;;;;;;;17.33;8.55;;;;;;;-2.41;64.26;99670.91;5053066;28;20029;-54
2022/11/16 05:22:18;;;;;;;20.08;8.57;;;;;;;-2.45;64.49;99676.25;5049808;28;20030;-50
2022/11/16 05:24:44;;;;;;;17.75;8.98;;;;;;;-2.35;64.03;99676.84;5033161;28;20117;-50
2022/11/16 05:27:13;;;;;;;20.33;9.60;;;;;;;-2.48;64.46;99684.22;5033002;28;20432;-53
2022/11/16 05:29:38;;;;;;;15.23;8.23;;;;;;;-2.54;65.14;99679.16;5032790;28;20395;-53
2022/11/16 05:32:05;;;;;;;24.13;7.90;;;;;;;-2.48;64.86;99681.59;5033572;28;20091;-57
2022/11/16 05:34:31;;;;;;;16.35;7.95;;;;;;;-2.52;64.50;99638.03;5051453;28;20063;-49
2022/11/16 05:36:57;;;;;;;17.98;8.05;;;;;;;-2.37;64.65;99673.41;5037152;28;20031;-48
2022/11/16 05:39:23;;;;;;;12.38;6.45;;;;;;;-1.96;62.88;99680.91;5031981;28;20037;-50
2022/11/16 05:41:48;;;;;;;17.20;8.70;;;;;;;-2.00;62.97;99686.31;5032984;28;20057;-60
2022/11/16 05:44:14;;;;;;;17.55;7.97;;;;;;;-1.94;63.48;99681.72;5032493;28;20053;-49
2022/11/16 05:46:42;;;;;;;15.57;8.48;;;;;;;-1.68;62.38;99694.94;5032573;28;20045;-59
2022/11/16 05:49:08;;;;;;;16.40;8.20;;;;;;;-1.69;61.96;99691.44;5032613;28;20034;-52
2022/11/16 05:51:35;;;;;;;18.10;7.97;;;;;;;-1.60;62.69;99700.78;5031977;28;20033;-56
2022/11/16 05:54:01;;;;;;;14.30;7.53;;;;;;;-1.50;62.06;99667.22;5048274;28;20079;-61
2022/11/16 05:56:26;;;;;;;22.55;9.13;;;;;;;-0.92;59.88;99655.63;5032401;28;20041;-51
2022/11/16 05:58:52;;;;;;;20.83;9.27;;;;;;;-0.18;59.28;99692.31;5032951;28;20466;-53
2022/11/16 06:01:18;;;;;;;20.15;8.93;;;;;;;0.22;57.75;99666.19;5032325;28;20033;-56
2022/11/16 06:03:43;;;;;;;23.25;9.38;;;;;;;1.02;55.79;99702.47;5044001;28;20037;-57
2022/11/16 06:06:09;;;;;;;16.48;8.55;;;;;;;1.75;53.57;99692.19;5051235;28;20029;-59
2022/11/16 06:08:34;;;;;;;24.40;9.57;;;;;;;2.71;51.39;99698.16;5052602;28;20037;-57
2022/11/16 06:11:01;;;;;;;13.82;6.47;;;;;;;4.55;47.88;99693.69;5051709;28;20033;-57
2022/11/16 06:13:27;;;;;;;19.88;9.57;;;;;;;5.60;44.56;99692.75;5038294;28;20029;-68
2022/11/16 06:15:52;;;;;;;20.48;9.32;;;;;;;5.95;43.62;99695.94;5033406;28;20048;-54
2022/11/16 06:18:18;;;;;;;17.27;8.27;;;;;;;6.89;41.47;99694.31;5032202;28;20060;-55
2022/11/16 06:20:43;;;;;;;16.85;8.90;;;;;;;7.65;38.95;99650.97;5031616;28;20484;-62
2022/11/16 06:23:09;;;;;;;12.93;7.63;;;;;;;8.69;37.20;99686.16;5043912;28;20036;-56
2022/11/16 06:25:37;;;;;;;12.82;7.38;;;;;;;9.43;36.09;99690.34;5056196;28;20075;-65
2022/11/16 06:28:03;;;;;;;16.75;7.93;;;;;;;9.74;34.52;99690.59;5046591;28;20030;-52
2022/11/16 06:30:28;;;;;;;15.60;7.90;;;;;;;8.82;35.72;99691.41;5036999;28;20321;-63
2022/11/16 06:32:54;;;;;;;12.90;7.60;;;;;;;7.90;37.62;99690.88;5045347;28;20036;-63
2022/11/16 06:35:19;;;;;;;17.95;7.90;;;;;;;7.56;38.29;99689.75;5040894;28;20033;-64
2022/11/16 06:37:44;;;;;;;16.38;7.85;;;;;;;7.03;38.63;99683.59;5034903;28;20029;-62
2022/11/16 06:40:10;;;;;;;18.15;8.98;;;;;;;6.42;39.41;99696.53;5053366;28;20082;-63
2022/11/16 06:42:36;;;;;;;16.05;8.82;;;;;;;5.71;40.64;99693.88;5055112;28;20094;-64
2022/11/16 06:45:02;;;;;;;16.33;9.18;;;;;;;5.03;41.94;99701.53;5053338;28;20124;-66
2022/11/16 06:47:29;;;;;;;20.33;9.88;;;;;;;4.77;42.42;99698.63;5053894;28;20452;-62
2022/11/16 06:49:55;;;;;;;16.63;8.85;;;;;;;6.29;40.36;99696.50;5052911;28;20035;-64
2022/11/16 06:52:21;;;;;;;23.80;9.32;;;;;;;8.08;36.58;99663.88;5048611;28;20125;-63
2022/11/16 06:54:46;;;;;;;21.08;9.20;;;;;;;9.66;34.12;99682.34;5048081;28;20440;-64
2022/11/16 06:57:12;;;;;;;15.23;8.80;;;;;;;11.14;31.12;99690.81;5055068;28;20037;-63
2022/11/16 06:59:37;;;;;;;20.63;8.60;;;;;;;12.03;30.00;99664.44;5054598;28;20068;-63
2022/11/16 07:02:03;;;;;;;14.27;8.43;;;;;;;13.27;28.16;99679.16;5054500;28;20362;-64
2022/11/16 07:04:30;;;;;;;17.70;9.45;;;;;;;14.45;26.24;99695.63;5055392;28;20419;-63
2022/11/16 07:06:55;;;;;;;15.25;8.40;;;;;;;15.26;24.71;99684.94;5054625;28;20091;-64
2022/11/16 07:09:20;;;;;;;18.75;8.98;;;;;;;15.87;24.04;99681.38;5047534;28;20364;-62
2022/11/16 07:11:46;;;;;;;16.30;9.35;;;;;;;16.13;23.31;99677.81;5034194;28;20112;-64
2022/11/16 07:14:12;;;;;;;16.10;9.20;;;;;;;16.17;23.19;99673.75;5054108;28;20055;-62
2022/11/16 07:16:37;;;;;;;13.02;7.70;;;;;;;15.21;23.11;99650.34;5054176;28;20033;-63
2022/11/16 07:19:03;;;;;;;14.75;7.78;;;;;;;13.61;24.95;99684.03;5035586;28;20044;-63
2022/11/16 07:21:29;;;;;;;13.52;7.90;;;;;;;11.75;27.25;99661.47;5033090;28;20041;-64
2022/11/16 07:23:54;;;;;;;13.27;7.18;;;;;;;10.05;29.83;99662.25;5036712;28;20079;-61
2022/11/16 07:26:20;;;;;;;17.90;8.07;;;;;;;8.80;32.15;99690.69;5054267;28;20459;-62
2022/11/16 07:28:45;;;;;;;18.23;8.55;;;;;;;7.42;34.04;99690.75;5051832;28;20087;-71
2022/11/16 07:31:13;;;;;;;14.60;7.57;;;;;;;5.89;36.51;99686.56;5042307;28;20039;-64
2022/11/16 07:33:39;;;;;;;13.88;7.57;;;;;;;4.65;38.95;99697.53;5040837;28;20364;-73
2022/11/16 07:36:07;;;;;;;14.18;6.95;;;;;;;3.85;41.47;99695.78;5017901;28;20071;-62
2022/11/16 07:38:33;;;;;;;14.15;7.10;;;;;;;3.09;42.77;99664.53;5043366;28;20033;-60
2022/11/16 07:41:08;;;;;;;14.90;6.03;;;;;;;2.83;43.66;99702.00;5037318;28;20103;-58
2022/11/16 07:43:34;;;;;;;10.55;6.30;;;;;;;2.43;44.24;99706.59;5038988;28;20045;-60
2022/11/16 07:46:04;;;;;;;15.65;7.55;;;;;;;2.07;45.63;99705.66;5054515;28;20051;-60
2022/11/16 07:48:31;;;;;;;15.95;7.63;;;;;;;1.75;46.02;99704.50;5036514;28;20054;-63
2022/11/16 07:51:09;;;;;;;13.75;6.72;;;;;;;1.63;46.08;99703.28;5053477;28;20055;-61
2022/11/16 07:53:35;;;;;;;11.65;6.82;;;;;;;1.32;46.88;99694.97;5055506;28;20036;-62
2022/11/16 07:56:01;;;;;;;12.63;6.70;;;;;;;1.27;47.50;99697.84;5054213;28;20367;-63
2022/11/16 07:58:27;;;;;;;11.75;6.25;;;;;;;1.30;47.13;99702.09;5054193;28;20100;-63
2022/11/16 08:00:53;;;;;;;13.13;5.80;;;;;;;1.31;47.18;99701.16;5052581;28;20028;-63
2022/11/16 08:03:19;;;;;;;15.73;6.43;;;;;;;1.38;47.69;99701.75;5054408;28;20036;-62
2022/11/16 08:05:45;;;;;;;13.55;6.15;;;;;;;1.52;47.22;99698.50;5054549;28;20115;-62
2022/11/16 08:08:11;;;;;;;10.45;5.95;;;;;;;1.42;47.28;99704.19;5054181;28;20032;-59
2022/11/16 08:10:37;;;;;;;10.05;5.78;;;;;;;1.23;47.64;99661.97;5053115;28;20025;-61
2022/11/16 08:13:03;;;;;;;12.40;6.20;;;;;;;1.42;47.12;99700.69;5048498;28;20359;-55
2022/11/16 08:15:28;;;;;;;15.10;6.45;;;;;;;1.41;47.95;99706.91;5037765;28;20033;-59
2022/11/16 08:17:57;;;;;;;13.15;7.30;;;;;;;1.26;47.61;99690.84;5051614;28;20093;-61
2022/11/16 08:20:22;;;;;;;13.25;6.95;;;;;;;1.35;48.42;99707.19;5050731;28;20025;-61
2022/11/16 08:22:48;;;;;;;18.73;6.55;;;;;;;1.45;48.37;99700.56;5038042;28;20040;-60
2022/11/16 08:25:14;;;;;;;15.38;7.55;;;;;;;1.52;48.13;99709.06;5033163;28;20041;-60
2022/11/16 08:27:39;;;;;;;15.52;7.97;;;;;;;1.57;48.24;99707.94;5050776;28;20360;-62
2022/11/16 08:30:08;;;;;;;14.65;8.00;;;;;;;1.55;47.84;99699.22;5033936;28;20077;-61
2022/11/16 08:32:37;;;;;;;16.73;8.57;;;;;;;1.45;48.17;99666.28;5048599;28;20115;-62
2022/11/16 08:35:03;;;;;;;18.30;8.82;;;;;;;1.55;48.29;99707.16;5043307;28;20476;-62
2022/11/16 08:37:30;;;;;;;22.67;9.23;;;;;;;1.48;48.26;99703.06;5032897;28;20182;-63
2022/11/16 08:39:56;;;;;;;20.30;8.27;;;;;;;1.49;47.92;99717.09;5033474;28;20028;-63
2022/11/16 08:42:21;;;;;;;13.65;7.18;;;;;;;1.47;47.65;99706.66;5033600;28;20029;-62
2022/11/16 08:44:47;;;;;;;18.58;8.00;;;;;;;1.33;48.21;99707.25;5032227;28;20126;-62
2022/11/16 08:47:12;;;;;;;18.05;7.85;;;;;;;1.33;48.61;99709.91;5044826;28;20032;-63
2022/11/16 08:49:38;;;;;;;12.45;6.75;;;;;;;1.41;48.34;99713.03;5053173;28;20044;-62
2022/11/16 08:52:03;;;;;;;11.68;6.95;;;;;;;1.50;47.83;99716.19;5053372;28;20036;-62
2022/11/16 08:54:30;;;;;;;16.88;7.80;;;;;;;1.39;48.08;99724.56;5053109;28;20110;-60
2022/11/16 08:56:56;;;;;;;10.95;6.45;;;;;;;1.45;47.26;99716.41;5053499;28;20040;-62
2022/11/16 08:59:22;;;;;;;13.88;6.32;;;;;;;1.39;47.80;99728.09;5053295;28;20031;-61
2022/11/16 09:01:48;;;;;;;14.15;6.72;;;;;;;1.39;47.15;99722.81;5031644;28;20395;-62
2022/11/16 09:04:15;;;;;;;18.98;7.07;;;;;;;1.26;47.56;99726.91;5032528;28;20041;-61
2022/11/16 09:06:40;;;;;;;11.27;5.82;;;;;;;1.28;46.99;99736.47;5033487;28;20022;-61
2022/11/16 09:09:06;;;;;;;14.90;6.05;;;;;;;0.95;46.54;99705.34;5031996;28;20095;-62
2022/11/16 09:11:31;;;;;;;14.45;6.35;;;;;;;0.85;47.81;99723.34;5033505;28;20069;-61
2022/11/16 09:13:57;;;;;;;13.02;6.40;;;;;;;0.75;48.14;99721.16;5032127;28;20103;-63
2022/11/16 09:16:25;;;;;;;14.07;8.02;;;;;;;0.85;48.99;99719.84;5035701;28;20033;-61
2022/11/16 09:18:51;;;;;;;18.98;8.45;;;;;;;0.88;49.49;99722.34;5052123;28;20041;-61
2022/11/16 09:21:27;;;;;;;14.95;8.27;;;;;;;1.02;49.02;99723.56;5053343;28;20086;-61
2022/11/16 09:23:55;;;;;;;17.02;7.70;;;;;;;1.19;48.62;99725.47;5052986;28;20035;-62
2022/11/16 09:26:21;;;;;;;15.70;8.18;;;;;;;1.28;47.73;99704.81;5052733;28;20410;-61
2022/11/16 09:28:54;;;;;;;15.25;7.57;;;;;;;1.44;48.08;99717.31;5052991;28;20166;-62
2022/11/16 09:31:21;;;;;;;16.02;8.00;;;;;;;1.51;47.60;99717.91;5052557;28;20040;-61
2022/11/16 09:33:46;;;;;;;15.80;7.90;;;;;;;1.60;47.12;99711.34;5042902;28;20045;-62
2022/11/16 09:36:12;;;;;;;13.65;7.75;;;;;;;1.64;47.16;99708.50;5037634;28;20044;-63
2022/11/16 09:38:43;;;;;;;14.00;7.28;;;;;;;1.75;46.38;99712.44;5032712;28;20033;-58
2022/11/16 09:41:14;;;;;;;15.98;7.07;;;;;;;1.91;46.79;99718.72;5032872;28;20038;-61
2022/11/16 09:43:52;;;;;;;14.48;7.22;;;;;;;2.08;46.90;99715.28;5036665;28;20519;-61
2022/11/16 09:46:41;;;;;;;18.48;8.25;;;;;;;2.22;46.59;99708.50;5040060;28;20041;-63
2022/11/16 09:49:33;;;;;;;14.98;7.03;;;;;;;2.21;46.04;99714.72;5032415;28;20419;-61
2022/11/16 09:52:08;;;;;;;14.77;7.25;;;;;;;2.03;45.37;99706.72;5032229;28;20484;-62
2022/11/16 09:54:38;;;;;;;16.63;7.70;;;;;;;1.67;46.92;99710.13;5051408;28;20044;-62
2022/11/16 09:57:09;;;;;;;12.82;6.10;;;;;;;1.68;46.51;99714.47;5049086;28;20045;-60
2022/11/16 09:59:42;;;;;;;16.30;7.55;;;;;;;1.28;46.84;99675.81;5045848;28;20111;-61
2022/11/16 10:02:28;;;;;;;13.00;6.72;;;;;;;1.67;46.73;99707.50;5051693;28;20025;-61
2022/11/16 10:05:11;;;;;;;10.30;4.80;;;;;;;1.40;45.12;99713.09;5036903;28;20021;-63
2022/11/16 10:07:42;;;;;;;11.85;4.63;;;;;;;0.94;46.22;99718.59;5031909;28;20191;-61
2022/11/16 10:10:15;;;;;;;8.77;5.10;;;;;;;0.75;46.44;99710.63;5031965;28;20084;-62
2022/11/16 10:12:50;;;;;;;14.43;5.05;;;;;;;0.51;47.28;99708.09;5032302;28;20033;-63
2022/11/16 10:15:15;;;;;;;;;;;;;;;0.91;46.66;99721.38;5033632;28;20032;-61
2022/11/16 10:17:44;;;;;;;7.75;4.35;;;;;;;0.75;46.08;99708.00;5050793;28;19924;-62
2022/11/16 10:20:09;;;;;;;8.85;4.38;;;;;;;0.52;45.86;99710.63;5049399;28;20064;-63
2022/11/16 10:23:00;;;;;;;6.90;3.75;;;;;;;0.55;46.33;99714.94;5031525;28;20077;-62
2022/11/16 10:25:36;;;;;;;8.77;3.78;;;;;;;0.29;46.15;99714.22;5031780;28;20305;-63
2022/11/16 10:28:14;;;;;;;;;;;;;;;0.47;46.23;99719.63;5032999;28;20026;-63
2022/11/16 10:30:52;;;;;;;9.55;5.18;;;;;;;0.17;47.02;99731.34;5041249;28;20039;-61
2022/11/16 10:33:20;;;;;;;8.95;4.15;;;;;;;0.10;46.85;99719.31;5051163;28;20025;-63
2022/11/16 10:35:53;;;;;;;9.40;5.15;;;;;;;0.11;48.06;99721.91;5051659;28;20028;-63
2022/11/16 10:38:29;;;;;;;9.13;5.63;;;;;;;0.34;47.89;99721.91;5050993;28;20029;-62
2022/11/16 10:41:16;;;;;;;8.43;4.30;;;;;;;0.83;46.76;99714.63;5051484;28;20032;-60
2022/11/16 10:43:43;;;;;;;9.15;4.60;;;;;;;1.08;45.34;99718.84;5049562;28;20384;-63
2022/11/16 10:46:43;;;;;;;7.82;4.15;;;;;;;1.43;45.55;99720.88;5034742;28;20048;-61
2022/11/16 10:49:18;;;;;;;7.50;4.20;;;;;;;1.85;44.80;99717.22;5047821;28;20045;-63
2022/11/16 10:51:43;;;;;;;10.15;4.72;;;;;;;2.11;44.45;99717.78;5052224;28;20039;-64
2022/11/16 10:54:13;;;;;;;9.88;4.95;;;;;;;2.39;43.78;99719.09;5051103;28;20040;-62
2022/11/16 10:56:44;;;;;;;10.35;4.85;;;;;;;2.51;43.92;99724.72;5037652;28;20036;-62
2022/11/16 10:59:14;;;;;;;9.52;4.43;;;;;;;2.52;42.90;99724.63;5051693;28;20036;-61
2022/11/16 11:01:43;;;;;;;9.98;4.65;;;;;;;2.41;43.35;99727.84;5051918;28;20401;-62
2022/11/16 11:04:27;;;;;;;11.70;5.20;;;;;;;2.33;44.47;99722.03;5050920;28;20033;-62
2022/11/16 11:06:57;;;;;;;11.35;5.50;;;;;;;2.21;44.73;99733.22;5051586;28;20044;-64
2022/11/16 11:09:33;;;;;;;9.82;5.30;;;;;;;2.17;44.18;99727.19;5048596;28;20368;-60
2022/11/16 11:15:09;;;;;;;12.15;5.60;;;;;;;1.62;45.69;99730.59;5044033;28;20507;-65
2022/11/16 11:17:36;;;;;;;12.52;5.35;;;;;;;1.34;45.47;99723.94;5037081;28;20128;-62
2022/11/16 11:20:14;;;;;;;11.40;4.88;;;;;;;1.18;46.18;99721.09;5054877;28;20110;-60
2022/11/16 11:22:49;;;;;;;9.80;4.90;;;;;;;1.03;46.42;99725.28;5055131;28;20041;-62
2022/11/16 11:25:36;;;;;;;6.63;2.95;;;;;;;1.52;44.93;99725.75;5055437;28;20051;-67
2022/11/16 11:28:19;;;;;;;7.70;4.15;;;;;;;1.02;45.64;99726.19;5040001;28;20042;-64
2022/11/16 11:31:04;;;;;;;6.93;3.72;;;;;;;0.75;46.42;99726.44;5034836;28;20036;-67
2022/11/16 11:33:48;;;;;;;6.18;3.88;;;;;;;0.73;45.61;99725.66;5041555;28;20082;-63
2022/11/16 11:36:31;;;;;;;10.30;4.75;;;;;;;0.62;46.29;99716.38;5034836;28;20767;-62
2022/11/16 11:39:02;;;;;;;6.95;3.42;;;;;;;0.59;45.71;99732.31;5039471;28;20409;-62
2022/11/16 11:41:40;;;;;;;8.15;3.63;;;;;;;0.54;45.97;99718.50;5054602;28;20082;-60
2022/11/16 11:44:17;;;;;;;5.47;3.45;;;;;;;0.52;46.20;99715.91;5054936;28;20380;-63
2022/11/16 11:46:49;;;;;;;5.47;3.97;;;;;;;0.26;46.62;99730.16;5055143;28;20029;-63
2022/11/16 11:49:28;;;;;;;8.02;4.10;;;;;;;0.30;46.95;99715.94;5052858;28;20037;-63
2022/11/16 11:51:57;;;;;;;5.45;3.53;;;;;;;0.24;46.74;99726.69;5054355;28;20043;-63
2022/11/16 11:54:30;;;;;;;5.57;3.38;;;;;;;0.19;47.17;99732.16;5037082;28;20425;-63
2022/11/16 11:56:56;;;;;;;7.65;3.60;;;;;;;0.26;46.55;99738.03;5033593;28;20030;-61
2022/11/16 11:59:24;;;;;;;8.73;3.38;;;;;;;0.25;46.56;99731.06;5043660;28;20032;-62
2022/11/16 12:02:03;;;;;;;7.60;3.75;;;;;;;0.09;47.19;99729.03;5034159;28;20040;-61
2022/11/16 12:04:40;;;;;;;9.10;3.40;;;;;;;-0.16;47.00;99685.22;5047179;28;20075;-59
2022/11/16 12:07:36;;;;;;;9.80;4.55;;;;;;;-0.18;48.16;99723.91;5054300;28;20036;-61
2022/11/16 12:10:27;;;;;;;10.63;3.83;;;;;;;-0.29;48.50;99728.69;5033971;28;20045;-60
2022/11/16 12:13:03;;;;;;;7.78;4.30;;;;;;;-0.32;48.72;99718.28;5053296;28;20051;-57
2022/11/16 12:15:49;;;;;;;9.55;4.15;;;;;;;-0.20;48.32;99715.22;5050200;28;20437;-63
2022/11/16 12:18:31;;;;;;;11.55;4.25;;;;;;;-0.33;48.61;99712.19;5036093;28;20045;-63
2022/11/16 12:21:09;;;;;;;9.45;4.05;;;;;;;-0.21;47.94;99717.88;5045002;28;20039;-64
2022/11/16 12:23:52;;;;;;;10.05;3.65;;;;;;;-0.08;47.94;99715.63;5053629;28;20044;-59
2022/11/16 12:26:27;;;;;;;7.22;4.40;;;;;;;-0.20;48.00;99702.06;5040085;28;20371;-63
2022/11/16 12:29:02;;;;;;;9.77;4.30;;;;;;;-0.38;48.19;99697.47;5046117;28;20032;-64